DGAA

Kotoka International Airport

Accra, Ghana
TAF DGAA 212300Z 2200/2306 27005KT 9999 BKN010 BECMG 2204/2206 4000 BR BECMG 2209/2211 8000 FEW025 BECMG 2212/14 18010KT BECMG 2218/2220 CAVOK
Issued Valid From Valid To
Jan-21 @ 23:00 UTC
(an hour ago)
Jan-22 @ 00:00 UTC
(8 minutes ago)
Jan-23 @ 06:00 UTC
(-1 days ago)
Jan-22 @ 00:00 to Jan-22 @ 04:00
TAF DGAA 212300Z 2200/2306 27005KT 9999 BKN010
Wind Visibility Clouds
270° at 5 knots 10,000+ meters
  • Broken at 1,000' AGL
Becoming Jan-22 @ 04:00 to Jan-22 @ 09:00
BECMG 2204/2206 4000 BR
Wind Visibility Clouds Conditions
270° at 5 knots 4,007 meters
  • Broken at 1,000' AGL
  • Mist
Becoming Jan-22 @ 09:00 to Jan-22 @ 18:00
BECMG 2209/2211 8000 FEW025
Wind Visibility Clouds Conditions
270° at 5 knots 7,998 meters
  • Few at 2,500' AGL
  • Mist
Becoming Jan-22 @ 18:00 to Jan-23 @ 06:00
BECMG 2218/2220 CAVOK
Wind Visibility Clouds Conditions
270° at 5 knots 10,000+ meters
  • No significant clouds
TAF DGAA 212300Z 2200/2306 27005KT 9999 BKN010 BECMG 2204/2206 4000 BR BECMG 2209/2211 8000 FEW025 BECMG 2212/14 18010KT BECMG 2218/2220 CAVOK
Issued Jan-21 @ 23:00 UTC
(an hour ago)
Valid From Jan-22 @ 00:00 UTC
(8 minutes ago)
Valid To Jan-23 @ 06:00 UTC
(-1 days ago)
Jan-22 @ 00:00 - Jan-22 @ 04:00
Wind Visibility
270° at 5 knots 10,000+ meters
Clouds
  • Broken at 1,000' AGL
Becoming Jan-22 @ 04:00 - Jan-22 @ 09:00
Wind Visibility
270° at 5 knots 4,007 meters
Clouds
  • Broken at 1,000' AGL
Conditions
  • Mist
Becoming Jan-22 @ 09:00 - Jan-22 @ 18:00
Wind Visibility
270° at 5 knots 7,998 meters
Clouds
  • Few at 2,500' AGL
Conditions
  • Mist
Becoming Jan-22 @ 18:00 - Jan-23 @ 06:00
Wind Visibility
270° at 5 knots 10,000+ meters
Clouds
  • No significant clouds
Conditions